sensor_id;sensor_type;location;lat;lon;timestamp;temperature;humidity
62154;DHT22;48140;45.486;9.226;2023-02-28T00:00:13;6.20;92.00
62154;DHT22;48140;45.486;9.226;2023-02-28T00:02:43;6.20;91.50
62154;DHT22;48140;45.486;9.226;2023-02-28T00:05:11;6.20;91.10
62154;DHT22;48140;45.486;9.226;2023-02-28T00:07:37;6.20;90.80
62154;DHT22;48140;45.486;9.226;2023-02-28T00:10:05;6.30;90.10
62154;DHT22;48140;45.486;9.226;2023-02-28T00:12:32;6.30;88.90
62154;DHT22;48140;45.486;9.226;2023-02-28T00:14:57;6.30;87.80
62154;DHT22;48140;45.486;9.226;2023-02-28T00:17:23;6.30;87.70
62154;DHT22;48140;45.486;9.226;2023-02-28T00:19:49;6.30;87.90
62154;DHT22;48140;45.486;9.226;2023-02-28T00:22:17;6.20;85.80
62154;DHT22;48140;45.486;9.226;2023-02-28T00:24:43;6.20;85.30
62154;DHT22;48140;45.486;9.226;2023-02-28T00:27:08;6.20;82.70
62154;DHT22;48140;45.486;9.226;2023-02-28T00:29:34;6.20;83.20
62154;DHT22;48140;45.486;9.226;2023-02-28T00:32:00;6.20;84.20
62154;DHT22;48140;45.486;9.226;2023-02-28T00:34:25;6.20;83.50
62154;DHT22;48140;45.486;9.226;2023-02-28T00:36:51;6.20;83.80
62154;DHT22;48140;45.486;9.226;2023-02-28T00:39:16;6.20;82.30
62154;DHT22;48140;45.486;9.226;2023-02-28T00:41:42;6.20;82.10
62154;DHT22;48140;45.486;9.226;2023-02-28T00:44:08;6.20;82.80
62154;DHT22;48140;45.486;9.226;2023-02-28T00:46:35;6.10;83.30
62154;DHT22;48140;45.486;9.226;2023-02-28T00:49:00;6.20;82.80
62154;DHT22;48140;45.486;9.226;2023-02-28T00:51:26;6.30;83.20
62154;DHT22;48140;45.486;9.226;2023-02-28T00:53:51;6.30;84.00
62154;DHT22;48140;45.486;9.226;2023-02-28T00:56:17;6.30;84.00
62154;DHT22;48140;45.486;9.226;2023-02-28T00:58:42;6.30;83.80
62154;DHT22;48140;45.486;9.226;2023-02-28T01:01:08;6.30;84.30
62154;DHT22;48140;45.486;9.226;2023-02-28T01:03:34;6.20;83.80
62154;DHT22;48140;45.486;9.226;2023-02-28T01:06:00;6.20;84.70
62154;DHT22;48140;45.486;9.226;2023-02-28T01:08:26;6.20;83.80
62154;DHT22;48140;45.486;9.226;2023-02-28T01:10:52;6.20;84.40
62154;DHT22;48140;45.486;9.226;2023-02-28T01:13:19;6.20;83.70
62154;DHT22;48140;45.486;9.226;2023-02-28T01:15:52;6.20;83.70
62154;DHT22;48140;45.486;9.226;2023-02-28T01:18:20;6.10;84.20
62154;DHT22;48140;45.486;9.226;2023-02-28T01:20:47;6.10;84.20
62154;DHT22;48140;45.486;9.226;2023-02-28T01:23:12;6.10;84.50
62154;DHT22;48140;45.486;9.226;2023-02-28T01:25:38;6.10;84.20
62154;DHT22;48140;45.486;9.226;2023-02-28T01:28:04;6.10;84.10
62154;DHT22;48140;45.486;9.226;2023-02-28T01:30:31;6.00;82.80
62154;DHT22;48140;45.486;9.226;2023-02-28T01:32:57;6.10;83.10
62154;DHT22;48140;45.486;9.226;2023-02-28T01:35:23;6.10;83.90
62154;DHT22;48140;45.486;9.226;2023-02-28T01:37:48;6.10;83.70
62154;DHT22;48140;45.486;9.226;2023-02-28T01:40:14;6.10;83.70
62154;DHT22;48140;45.486;9.226;2023-02-28T01:42:40;6.10;83.60
62154;DHT22;48140;45.486;9.226;2023-02-28T01:45:35;6.00;83.40
62154;DHT22;48140;45.486;9.226;2023-02-28T01:48:04;6.10;83.70
62154;DHT22;48140;45.486;9.226;2023-02-28T01:50:35;6.10;82.90
62154;DHT22;48140;45.486;9.226;2023-02-28T01:53:05;6.00;84.70
62154;DHT22;48140;45.486;9.226;2023-02-28T01:55:32;6.10;85.00
62154;DHT22;48140;45.486;9.226;2023-02-28T01:58:02;6.20;84.90
62154;DHT22;48140;45.486;9.226;2023-02-28T02:00:30;6.00;84.60
62154;DHT22;48140;45.486;9.226;2023-02-28T02:02:59;5.90;83.90
62154;DHT22;48140;45.486;9.226;2023-02-28T02:05:28;5.70;84.80
62154;DHT22;48140;45.486;9.226;2023-02-28T02:08:04;5.60;85.70
62154;DHT22;48140;45.486;9.226;2023-02-28T02:10:34;5.50;87.80
62154;DHT22;48140;45.486;9.226;2023-02-28T02:18:48;5.50;87.10
62154;DHT22;48140;45.486;9.226;2023-02-28T02:30:09;5.50;86.40
62154;DHT22;48140;45.486;9.226;2023-02-28T02:38:24;5.60;86.80
62154;DHT22;48140;45.486;9.226;2023-02-28T02:43:29;5.40;88.80
62154;DHT22;48140;45.486;9.226;2023-02-28T02:46:12;5.20;87.90
62154;DHT22;48140;45.486;9.226;2023-02-28T02:48:40;5.20;87.90
62154;DHT22;48140;45.486;9.226;2023-02-28T02:51:12;5.20;89.40
62154;DHT22;48140;45.486;9.226;2023-02-28T02:53:52;5.20;88.40
62154;DHT22;48140;45.486;9.226;2023-02-28T02:56:26;5.20;89.80
62154;DHT22;48140;45.486;9.226;2023-02-28T02:58:56;5.20;90.00
62154;DHT22;48140;45.486;9.226;2023-02-28T03:01:26;5.20;89.90
62154;DHT22;48140;45.486;9.226;2023-02-28T03:03:58;5.20;89.90
62154;DHT22;48140;45.486;9.226;2023-02-28T03:06:25;5.30;90.20
62154;DHT22;48140;45.486;9.226;2023-02-28T03:08:50;5.30;89.40
62154;DHT22;48140;45.486;9.226;2023-02-28T03:11:16;5.20;89.50
62154;DHT22;48140;45.486;9.226;2023-02-28T03:27:17;5.20;90.20
62154;DHT22;48140;45.486;9.226;2023-02-28T03:29:51;5.20;89.40
62154;DHT22;48140;45.486;9.226;2023-02-28T03:32:28;5.30;89.00
62154;DHT22;48140;45.486;9.226;2023-02-28T03:34:59;5.20;88.50
62154;DHT22;48140;45.486;9.226;2023-02-28T03:37:29;5.20;88.90
62154;DHT22;48140;45.486;9.226;2023-02-28T03:40:08;5.20;89.50
62154;DHT22;48140;45.486;9.226;2023-02-28T03:42:39;5.20;89.30
62154;DHT22;48140;45.486;9.226;2023-02-28T03:45:11;5.30;89.30
62154;DHT22;48140;45.486;9.226;2023-02-28T03:47:44;5.30;89.10
62154;DHT22;48140;45.486;9.226;2023-02-28T03:50:24;5.30;88.80
62154;DHT22;48140;45.486;9.226;2023-02-28T03:53:01;5.30;88.40
62154;DHT22;48140;45.486;9.226;2023-02-28T03:55:36;5.30;88.20
62154;DHT22;48140;45.486;9.226;2023-02-28T04:01:08;5.30;88.80
62154;DHT22;48140;45.486;9.226;2023-02-28T04:03:36;5.20;89.20
62154;DHT22;48140;45.486;9.226;2023-02-28T04:06:03;5.20;88.50
62154;DHT22;48140;45.486;9.226;2023-02-28T04:08:29;5.20;88.40
62154;DHT22;48140;45.486;9.226;2023-02-28T04:11:02;5.30;88.20
62154;DHT22;48140;45.486;9.226;2023-02-28T04:13:29;5.20;88.50
62154;DHT22;48140;45.486;9.226;2023-02-28T04:15:55;5.30;88.00
62154;DHT22;48140;45.486;9.226;2023-02-28T04:18:20;5.20;87.10
62154;DHT22;48140;45.486;9.226;2023-02-28T04:20:46;5.20;87.90
62154;DHT22;48140;45.486;9.226;2023-02-28T04:23:12;5.20;86.90
62154;DHT22;48140;45.486;9.226;2023-02-28T04:25:37;5.20;86.80
62154;DHT22;48140;45.486;9.226;2023-02-28T04:28:05;5.10;86.70
62154;DHT22;48140;45.486;9.226;2023-02-28T04:30:31;5.30;87.10
62154;DHT22;48140;45.486;9.226;2023-02-28T04:32:58;5.10;87.10
62154;DHT22;48140;45.486;9.226;2023-02-28T04:35:23;5.10;87.10
62154;DHT22;48140;45.486;9.226;2023-02-28T04:37:49;5.20;87.00
62154;DHT22;48140;45.486;9.226;2023-02-28T04:40:15;5.10;87.20
62154;DHT22;48140;45.486;9.226;2023-02-28T04:42:41;5.10;86.70
62154;DHT22;48140;45.486;9.226;2023-02-28T04:45:07;5.10;86.80
62154;DHT22;48140;45.486;9.226;2023-02-28T04:47:35;5.10;86.20
62154;DHT22;48140;45.486;9.226;2023-02-28T04:50:01;5.10;86.30
62154;DHT22;48140;45.486;9.226;2023-02-28T04:52:27;5.00;86.50
62154;DHT22;48140;45.486;9.226;2023-02-28T04:54:53;5.10;86.00
62154;DHT22;48140;45.486;9.226;2023-02-28T04:57:18;5.10;86.20
62154;DHT22;48140;45.486;9.226;2023-02-28T04:59:44;5.20;86.40
62154;DHT22;48140;45.486;9.226;2023-02-28T05:02:09;5.10;85.40
62154;DHT22;48140;45.486;9.226;2023-02-28T05:04:36;5.10;85.20
62154;DHT22;48140;45.486;9.226;2023-02-28T05:07:02;5.10;85.50
62154;DHT22;48140;45.486;9.226;2023-02-28T05:09:28;5.10;85.20
62154;DHT22;48140;45.486;9.226;2023-02-28T05:11:54;5.10;85.30
62154;DHT22;48140;45.486;9.226;2023-02-28T05:14:20;5.10;85.10
62154;DHT22;48140;45.486;9.226;2023-02-28T05:16:46;5.10;84.80
62154;DHT22;48140;45.486;9.226;2023-02-28T05:19:11;5.20;85.20
62154;DHT22;48140;45.486;9.226;2023-02-28T05:21:55;5.20;85.30
62154;DHT22;48140;45.486;9.226;2023-02-28T05:24:21;5.20;85.40
62154;DHT22;48140;45.486;9.226;2023-02-28T05:26:51;5.10;85.50
62154;DHT22;48140;45.486;9.226;2023-02-28T05:29:18;5.10;85.70
62154;DHT22;48140;45.486;9.226;2023-02-28T05:31:44;5.00;85.50
62154;DHT22;48140;45.486;9.226;2023-02-28T05:34:10;5.00;86.20
62154;DHT22;48140;45.486;9.226;2023-02-28T05:36:38;5.00;86.30
62154;DHT22;48140;45.486;9.226;2023-02-28T05:39:07;5.10;86.20
62154;DHT22;48140;45.486;9.226;2023-02-28T05:41:38;5.10;85.70
62154;DHT22;48140;45.486;9.226;2023-02-28T05:44:04;5.20;86.00
62154;DHT22;48140;45.486;9.226;2023-02-28T05:46:29;5.10;86.10
62154;DHT22;48140;45.486;9.226;2023-02-28T05:48:55;5.10;85.80
62154;DHT22;48140;45.486;9.226;2023-02-28T05:51:24;5.20;85.90
62154;DHT22;48140;45.486;9.226;2023-02-28T05:53:50;5.20;86.80
62154;DHT22;48140;45.486;9.226;2023-02-28T05:56:15;5.10;86.20
62154;DHT22;48140;45.486;9.226;2023-02-28T05:58:41;5.10;86.30
62154;DHT22;48140;45.486;9.226;2023-02-28T06:01:43;5.10;85.90
62154;DHT22;48140;45.486;9.226;2023-02-28T06:04:14;5.10;86.00
62154;DHT22;48140;45.486;9.226;2023-02-28T06:06:43;5.10;86.30
62154;DHT22;48140;45.486;9.226;2023-02-28T06:09:10;5.10;86.70
62154;DHT22;48140;45.486;9.226;2023-02-28T06:11:35;5.10;87.10
62154;DHT22;48140;45.486;9.226;2023-02-28T06:14:02;5.10;87.30
62154;DHT22;48140;45.486;9.226;2023-02-28T06:16:29;5.10;87.50
62154;DHT22;48140;45.486;9.226;2023-02-28T06:18:58;5.10;86.70
62154;DHT22;48140;45.486;9.226;2023-02-28T06:21:26;5.20;86.70
62154;DHT22;48140;45.486;9.226;2023-02-28T06:23:52;5.20;86.70
62154;DHT22;48140;45.486;9.226;2023-02-28T06:26:19;5.20;86.10
62154;DHT22;48140;45.486;9.226;2023-02-28T06:28:44;5.20;86.40
62154;DHT22;48140;45.486;9.226;2023-02-28T06:31:13;5.20;86.80
62154;DHT22;48140;45.486;9.226;2023-02-28T06:33:39;5.10;86.70
62154;DHT22;48140;45.486;9.226;2023-02-28T06:36:06;5.10;87.00
62154;DHT22;48140;45.486;9.226;2023-02-28T06:38:32;5.10;88.00
62154;DHT22;48140;45.486;9.226;2023-02-28T06:40:59;5.10;88.00
62154;DHT22;48140;45.486;9.226;2023-02-28T06:43:27;5.00;88.30
62154;DHT22;48140;45.486;9.226;2023-02-28T06:45:58;5.00;88.00
62154;DHT22;48140;45.486;9.226;2023-02-28T06:48:25;5.00;89.30
62154;DHT22;48140;45.486;9.226;2023-02-28T06:50:51;5.20;89.10
62154;DHT22;48140;45.486;9.226;2023-02-28T06:53:16;5.10;88.90
62154;DHT22;48140;45.486;9.226;2023-02-28T06:55:42;5.10;88.40
62154;DHT22;48140;45.486;9.226;2023-02-28T06:58:08;5.20;88.90
62154;DHT22;48140;45.486;9.226;2023-02-28T07:00:43;5.30;88.90
62154;DHT22;48140;45.486;9.226;2023-02-28T07:03:12;6.00;88.50
62154;DHT22;48140;45.486;9.226;2023-02-28T07:05:39;5.40;89.60
62154;DHT22;48140;45.486;9.226;2023-02-28T07:08:05;5.40;88.60
62154;DHT22;48140;45.486;9.226;2023-02-28T07:10:36;5.50;88.40
62154;DHT22;48140;45.486;9.226;2023-02-28T07:13:04;5.50;88.10
62154;DHT22;48140;45.486;9.226;2023-02-28T07:15:29;5.60;88.20
62154;DHT22;48140;45.486;9.226;2023-02-28T07:17:55;5.60;88.50
62154;DHT22;48140;45.486;9.226;2023-02-28T07:20:22;5.70;88.90
62154;DHT22;48140;45.486;9.226;2023-02-28T07:22:48;5.70;88.30
62154;DHT22;48140;45.486;9.226;2023-02-28T07:25:21;5.80;88.00
62154;DHT22;48140;45.486;9.226;2023-02-28T07:27:47;5.80;88.30
62154;DHT22;48140;45.486;9.226;2023-02-28T07:30:13;5.80;88.00
62154;DHT22;48140;45.486;9.226;2023-02-28T07:32:39;5.90;88.00
62154;DHT22;48140;45.486;9.226;2023-02-28T07:35:05;5.90;87.20
62154;DHT22;48140;45.486;9.226;2023-02-28T07:37:31;5.90;87.30
62154;DHT22;48140;45.486;9.226;2023-02-28T07:39:57;5.90;87.80
62154;DHT22;48140;45.486;9.226;2023-02-28T07:42:22;5.90;88.90
62154;DHT22;48140;45.486;9.226;2023-02-28T07:44:48;6.00;89.00
62154;DHT22;48140;45.486;9.226;2023-02-28T07:47:14;6.10;90.00
62154;DHT22;48140;45.486;9.226;2023-02-28T07:49:39;6.10;88.80
62154;DHT22;48140;45.486;9.226;2023-02-28T07:52:06;6.10;88.50
62154;DHT22;48140;45.486;9.226;2023-02-28T07:54:32;6.10;89.30
62154;DHT22;48140;45.486;9.226;2023-02-28T07:56:59;6.10;89.50
62154;DHT22;48140;45.486;9.226;2023-02-28T07:59:24;6.20;89.60
62154;DHT22;48140;45.486;9.226;2023-02-28T08:01:50;6.20;89.70
62154;DHT22;48140;45.486;9.226;2023-02-28T08:04:17;6.10;89.60
62154;DHT22;48140;45.486;9.226;2023-02-28T08:06:43;6.00;89.50
62154;DHT22;48140;45.486;9.226;2023-02-28T08:09:09;5.90;90.10
62154;DHT22;48140;45.486;9.226;2023-02-28T08:11:35;5.90;89.50
62154;DHT22;48140;45.486;9.226;2023-02-28T08:14:01;5.90;89.70
62154;DHT22;48140;45.486;9.226;2023-02-28T08:16:27;5.80;90.10
62154;DHT22;48140;45.486;9.226;2023-02-28T08:18:53;5.80;90.70
62154;DHT22;48140;45.486;9.226;2023-02-28T08:21:19;5.80;90.70
62154;DHT22;48140;45.486;9.226;2023-02-28T08:23:48;5.80;90.80
62154;DHT22;48140;45.486;9.226;2023-02-28T08:26:15;5.80;90.00
62154;DHT22;48140;45.486;9.226;2023-02-28T08:28:41;5.90;89.80
62154;DHT22;48140;45.486;9.226;2023-02-28T08:31:09;6.00;89.40
62154;DHT22;48140;45.486;9.226;2023-02-28T08:33:36;6.10;89.40
62154;DHT22;48140;45.486;9.226;2023-02-28T08:36:02;6.30;88.90
62154;DHT22;48140;45.486;9.226;2023-02-28T08:38:27;6.20;88.70
62154;DHT22;48140;45.486;9.226;2023-02-28T08:41:01;6.30;88.70
62154;DHT22;48140;45.486;9.226;2023-02-28T08:43:27;6.90;88.90
62154;DHT22;48140;45.486;9.226;2023-02-28T08:45:54;6.50;88.10
62154;DHT22;48140;45.486;9.226;2023-02-28T08:48:25;6.60;86.60
62154;DHT22;48140;45.486;9.226;2023-02-28T08:51:05;6.60;86.30
62154;DHT22;48140;45.486;9.226;2023-02-28T08:53:32;6.70;85.20
62154;DHT22;48140;45.486;9.226;2023-02-28T08:56:03;6.70;84.70
62154;DHT22;48140;45.486;9.226;2023-02-28T08:58:29;6.90;82.60
62154;DHT22;48140;45.486;9.226;2023-02-28T09:00:55;7.10;81.70
62154;DHT22;48140;45.486;9.226;2023-02-28T09:03:22;7.20;80.30
62154;DHT22;48140;45.486;9.226;2023-02-28T09:05:55;7.20;79.50
62154;DHT22;48140;45.486;9.226;2023-02-28T09:08:20;7.10;80.40
62154;DHT22;48140;45.486;9.226;2023-02-28T09:10:46;7.10;76.90
62154;DHT22;48140;45.486;9.226;2023-02-28T09:13:12;7.20;77.00
62154;DHT22;48140;45.486;9.226;2023-02-28T09:15:38;7.20;76.80
62154;DHT22;48140;45.486;9.226;2023-02-28T09:18:04;7.10;75.20
62154;DHT22;48140;45.486;9.226;2023-02-28T09:20:30;7.20;75.40
62154;DHT22;48140;45.486;9.226;2023-02-28T09:22:55;7.30;75.70
62154;DHT22;48140;45.486;9.226;2023-02-28T09:25:21;7.20;74.50
62154;DHT22;48140;45.486;9.226;2023-02-28T09:27:47;7.30;74.60
62154;DHT22;48140;45.486;9.226;2023-02-28T09:30:12;7.30;75.40
62154;DHT22;48140;45.486;9.226;2023-02-28T09:32:38;7.30;74.80
62154;DHT22;48140;45.486;9.226;2023-02-28T09:35:04;7.40;74.90
62154;DHT22;48140;45.486;9.226;2023-02-28T09:37:30;7.40;75.80
62154;DHT22;48140;45.486;9.226;2023-02-28T09:39:56;7.40;77.00
62154;DHT22;48140;45.486;9.226;2023-02-28T09:42:28;7.60;76.60
62154;DHT22;48140;45.486;9.226;2023-02-28T09:44:56;7.70;76.30
62154;DHT22;48140;45.486;9.226;2023-02-28T09:47:27;7.80;74.50
62154;DHT22;48140;45.486;9.226;2023-02-28T09:49:57;7.90;73.80
62154;DHT22;48140;45.486;9.226;2023-02-28T09:52:29;8.10;73.40
62154;DHT22;48140;45.486;9.226;2023-02-28T09:54:56;8.10;72.20
62154;DHT22;48140;45.486;9.226;2023-02-28T09:57:38;8.30;72.30
62154;DHT22;48140;45.486;9.226;2023-02-28T10:00:16;8.40;72.20
62154;DHT22;48140;45.486;9.226;2023-02-28T10:03:01;8.50;71.70
62154;DHT22;48140;45.486;9.226;2023-02-28T10:05:41;8.70;70.60
62154;DHT22;48140;45.486;9.226;2023-02-28T10:08:16;8.80;70.00
62154;DHT22;48140;45.486;9.226;2023-02-28T10:10:51;9.10;69.80
62154;DHT22;48140;45.486;9.226;2023-02-28T10:16:10;9.50;66.00
62154;DHT22;48140;45.486;9.226;2023-02-28T10:21:36;9.90;64.60
62154;DHT22;48140;45.486;9.226;2023-02-28T10:24:20;10.00;64.80
62154;DHT22;48140;45.486;9.226;2023-02-28T10:26:47;10.10;63.30
62154;DHT22;48140;45.486;9.226;2023-02-28T10:29:13;10.00;62.10
62154;DHT22;48140;45.486;9.226;2023-02-28T10:31:39;10.10;62.30
62154;DHT22;48140;45.486;9.226;2023-02-28T10:34:06;10.10;62.60
62154;DHT22;48140;45.486;9.226;2023-02-28T10:36:32;10.00;61.10
62154;DHT22;48140;45.486;9.226;2023-02-28T10:38:58;9.90;62.10
62154;DHT22;48140;45.486;9.226;2023-02-28T10:41:32;9.90;63.60
62154;DHT22;48140;45.486;9.226;2023-02-28T10:44:22;10.00;62.50
62154;DHT22;48140;45.486;9.226;2023-02-28T10:46:49;9.80;60.50
62154;DHT22;48140;45.486;9.226;2023-02-28T10:49:28;9.70;61.10
62154;DHT22;48140;45.486;9.226;2023-02-28T10:51:59;9.60;62.80
62154;DHT22;48140;45.486;9.226;2023-02-28T10:54:31;10.00;62.50
62154;DHT22;48140;45.486;9.226;2023-02-28T10:57:19;10.30;61.40
62154;DHT22;48140;45.486;9.226;2023-02-28T10:59:45;10.60;60.60
62154;DHT22;48140;45.486;9.226;2023-02-28T11:02:32;11.10;60.10
62154;DHT22;48140;45.486;9.226;2023-02-28T11:04:58;11.50;57.00
62154;DHT22;48140;45.486;9.226;2023-02-28T11:07:25;11.90;55.50
62154;DHT22;48140;45.486;9.226;2023-02-28T11:09:52;12.30;54.10
62154;DHT22;48140;45.486;9.226;2023-02-28T11:12:25;12.40;53.70
62154;DHT22;48140;45.486;9.226;2023-02-28T11:15:01;12.50;52.20
62154;DHT22;48140;45.486;9.226;2023-02-28T11:17:30;12.70;51.20
62154;DHT22;48140;45.486;9.226;2023-02-28T11:20:05;13.00;50.00
62154;DHT22;48140;45.486;9.226;2023-02-28T11:22:38;13.10;49.10
62154;DHT22;48140;45.486;9.226;2023-02-28T11:25:17;13.10;49.20
62154;DHT22;48140;45.486;9.226;2023-02-28T11:27:49;13.50;49.20
62154;DHT22;48140;45.486;9.226;2023-02-28T11:30:34;13.40;47.20
62154;DHT22;48140;45.486;9.226;2023-02-28T11:33:10;13.60;46.70
62154;DHT22;48140;45.486;9.226;2023-02-28T11:35:43;13.10;47.90
62154;DHT22;48140;45.486;9.226;2023-02-28T11:38:12;13.10;48.40
62154;DHT22;48140;45.486;9.226;2023-02-28T11:40:54;12.90;49.40
62154;DHT22;48140;45.486;9.226;2023-02-28T11:43:24;12.90;48.90
62154;DHT22;48140;45.486;9.226;2023-02-28T11:46:20;13.00;49.20
62154;DHT22;48140;45.486;9.226;2023-02-28T11:49:32;13.10;48.70
62154;DHT22;48140;45.486;9.226;2023-02-28T11:55:30;13.50;47.60
62154;DHT22;48140;45.486;9.226;2023-02-28T11:57:52;14.20;46.50
62154;DHT22;48140;45.486;9.226;2023-02-28T12:03:25;14.30;45.20
62154;DHT22;48140;45.486;9.226;2023-02-28T12:19:39;15.60;40.70
62154;DHT22;48140;45.486;9.226;2023-02-28T12:22:29;16.00;39.50
62154;DHT22;48140;45.486;9.226;2023-02-28T12:27:59;17.40;36.80
62154;DHT22;48140;45.486;9.226;2023-02-28T12:30:34;17.20;36.20
62154;DHT22;48140;45.486;9.226;2023-02-28T12:33:10;16.30;37.60
62154;DHT22;48140;45.486;9.226;2023-02-28T12:38:34;15.10;41.00
62154;DHT22;48140;45.486;9.226;2023-02-28T12:43:40;16.10;41.30
62154;DHT22;48140;45.486;9.226;2023-02-28T12:46:12;16.90;38.20
62154;DHT22;48140;45.486;9.226;2023-02-28T12:48:44;17.00;36.20
62154;DHT22;48140;45.486;9.226;2023-02-28T12:51:12;17.20;37.20
62154;DHT22;48140;45.486;9.226;2023-02-28T12:54:03;16.50;37.40
62154;DHT22;48140;45.486;9.226;2023-02-28T13:05:28;13.10;47.20
62154;DHT22;48140;45.486;9.226;2023-02-28T13:07:59;12.60;47.90
62154;DHT22;48140;45.486;9.226;2023-02-28T13:10:58;12.80;48.80
62154;DHT22;48140;45.486;9.226;2023-02-28T13:13:26;12.60;48.70
62154;DHT22;48140;45.486;9.226;2023-02-28T13:18:38;14.20;45.70
62154;DHT22;48140;45.486;9.226;2023-02-28T13:21:07;15.10;41.30
62154;DHT22;48140;45.486;9.226;2023-02-28T13:26:17;15.90;39.00
62154;DHT22;48140;45.486;9.226;2023-02-28T13:31:20;16.40;37.10
62154;DHT22;48140;45.486;9.226;2023-02-28T13:38:52;17.70;33.80
62154;DHT22;48140;45.486;9.226;2023-02-28T13:41:45;17.80;33.30
62154;DHT22;48140;45.486;9.226;2023-02-28T13:44:22;18.10;32.20
62154;DHT22;48140;45.486;9.226;2023-02-28T14:03:18;17.30;33.20
62154;DHT22;48140;45.486;9.226;2023-02-28T14:06:15;17.30;34.10
62154;DHT22;48140;45.486;9.226;2023-02-28T14:11:44;16.80;33.70
62154;DHT22;48140;45.486;9.226;2023-02-28T14:17:03;15.70;36.10
62154;DHT22;48140;45.486;9.226;2023-02-28T14:19:32;15.70;37.10
62154;DHT22;48140;45.486;9.226;2023-02-28T14:22:29;15.70;37.10
62154;DHT22;48140;45.486;9.226;2023-02-28T14:27:47;15.50;37.60
62154;DHT22;48140;45.486;9.226;2023-02-28T14:33:25;16.20;36.10
62154;DHT22;48140;45.486;9.226;2023-02-28T14:36:18;16.50;35.00
62154;DHT22;48140;45.486;9.226;2023-02-28T14:38:46;16.00;35.60
62154;DHT22;48140;45.486;9.226;2023-02-28T14:41:23;16.10;36.70
62154;DHT22;48140;45.486;9.226;2023-02-28T14:43:59;16.10;36.20
62154;DHT22;48140;45.486;9.226;2023-02-28T14:46:30;16.40;36.40
62154;DHT22;48140;45.486;9.226;2023-02-28T14:48:58;17.10;34.70
62154;DHT22;48140;45.486;9.226;2023-02-28T14:51:24;17.70;33.40
62154;DHT22;48140;45.486;9.226;2023-02-28T14:53:57;18.30;31.80
62154;DHT22;48140;45.486;9.226;2023-02-28T14:56:37;18.00;31.70
62154;DHT22;48140;45.486;9.226;2023-02-28T14:59:05;17.50;33.40
62154;DHT22;48140;45.486;9.226;2023-02-28T15:01:31;17.20;33.70
62154;DHT22;48140;45.486;9.226;2023-02-28T15:04:05;16.60;34.70
62154;DHT22;48140;45.486;9.226;2023-02-28T15:06:31;16.40;35.50
62154;DHT22;48140;45.486;9.226;2023-02-28T15:09:15;16.30;36.00
62154;DHT22;48140;45.486;9.226;2023-02-28T15:11:44;15.70;36.80
62154;DHT22;48140;45.486;9.226;2023-02-28T15:14:19;15.80;37.20
62154;DHT22;48140;45.486;9.226;2023-02-28T15:16:57;16.10;36.60
62154;DHT22;48140;45.486;9.226;2023-02-28T15:19:39;16.80;35.40
62154;DHT22;48140;45.486;9.226;2023-02-28T15:22:12;17.00;34.50
62154;DHT22;48140;45.486;9.226;2023-02-28T15:24:46;17.10;33.90
62154;DHT22;48140;45.486;9.226;2023-02-28T15:27:23;17.20;33.50
62154;DHT22;48140;45.486;9.226;2023-02-28T15:29:59;17.50;33.40
62154;DHT22;48140;45.486;9.226;2023-02-28T15:32:32;17.60;33.30
62154;DHT22;48140;45.486;9.226;2023-02-28T15:34:59;17.80;32.70
62154;DHT22;48140;45.486;9.226;2023-02-28T15:37:53;18.10;32.10
62154;DHT22;48140;45.486;9.226;2023-02-28T15:40:29;17.60;33.00
62154;DHT22;48140;45.486;9.226;2023-02-28T15:45:33;16.70;34.80
62154;DHT22;48140;45.486;9.226;2023-02-28T15:48:02;16.50;35.30
62154;DHT22;48140;45.486;9.226;2023-02-28T15:50:28;16.60;35.80
62154;DHT22;48140;45.486;9.226;2023-02-28T15:52:54;16.20;36.10
62154;DHT22;48140;45.486;9.226;2023-02-28T15:55:23;16.10;35.80
62154;DHT22;48140;45.486;9.226;2023-02-28T15:57:54;16.30;35.20
62154;DHT22;48140;45.486;9.226;2023-02-28T16:00:24;15.90;35.70
62154;DHT22;48140;45.486;9.226;2023-02-28T16:02:51;15.50;36.70
62154;DHT22;48140;45.486;9.226;2023-02-28T16:05:21;15.60;37.00
62154;DHT22;48140;45.486;9.226;2023-02-28T16:07:57;15.60;37.40
62154;DHT22;48140;45.486;9.226;2023-02-28T16:10:24;15.80;37.10
62154;DHT22;48140;45.486;9.226;2023-02-28T16:12:53;16.00;37.10
62154;DHT22;48140;45.486;9.226;2023-02-28T16:15:21;16.10;36.70
62154;DHT22;48140;45.486;9.226;2023-02-28T16:17:48;16.10;36.70
62154;DHT22;48140;45.486;9.226;2023-02-28T16:20:35;16.00;37.30
62154;DHT22;48140;45.486;9.226;2023-02-28T16:23:01;16.20;37.10
62154;DHT22;48140;45.486;9.226;2023-02-28T16:25:36;16.10;36.60
62154;DHT22;48140;45.486;9.226;2023-02-28T16:28:02;15.90;37.00
62154;DHT22;48140;45.486;9.226;2023-02-28T16:30:28;15.60;37.30
62154;DHT22;48140;45.486;9.226;2023-02-28T16:32:58;15.40;38.30
62154;DHT22;48140;45.486;9.226;2023-02-28T16:35:24;15.00;39.10
62154;DHT22;48140;45.486;9.226;2023-02-28T16:37:53;14.50;41.00
62154;DHT22;48140;45.486;9.226;2023-02-28T16:40:22;14.50;40.90
62154;DHT22;48140;45.486;9.226;2023-02-28T16:42:53;14.20;42.10
62154;DHT22;48140;45.486;9.226;2023-02-28T16:45:24;14.00;43.10
62154;DHT22;48140;45.486;9.226;2023-02-28T16:47:50;13.80;44.10
62154;DHT22;48140;45.486;9.226;2023-02-28T16:50:18;13.50;44.40
62154;DHT22;48140;45.486;9.226;2023-02-28T16:52:46;13.20;45.20
62154;DHT22;48140;45.486;9.226;2023-02-28T16:55:12;12.70;45.30
62154;DHT22;48140;45.486;9.226;2023-02-28T16:57:38;12.40;48.90
62154;DHT22;48140;45.486;9.226;2023-02-28T17:00:06;12.10;51.20
62154;DHT22;48140;45.486;9.226;2023-02-28T17:02:33;11.70;52.40
62154;DHT22;48140;45.486;9.226;2023-02-28T17:04:59;11.20;52.00
62154;DHT22;48140;45.486;9.226;2023-02-28T17:07:25;10.90;54.00
62154;DHT22;48140;45.486;9.226;2023-02-28T17:09:50;10.60;55.10
62154;DHT22;48140;45.486;9.226;2023-02-28T17:12:16;10.50;55.80
62154;DHT22;48140;45.486;9.226;2023-02-28T17:14:42;10.40;56.80
62154;DHT22;48140;45.486;9.226;2023-02-28T17:17:14;10.20;58.20
62154;DHT22;48140;45.486;9.226;2023-02-28T17:19:43;10.00;59.80
62154;DHT22;48140;45.486;9.226;2023-02-28T17:22:09;9.90;60.00
62154;DHT22;48140;45.486;9.226;2023-02-28T17:24:35;9.90;61.70
62154;DHT22;48140;45.486;9.226;2023-02-28T17:27:01;9.80;63.90
62154;DHT22;48140;45.486;9.226;2023-02-28T17:29:27;9.80;62.40
62154;DHT22;48140;45.486;9.226;2023-02-28T17:31:53;9.60;62.30
62154;DHT22;48140;45.486;9.226;2023-02-28T17:34:19;9.50;62.80
62154;DHT22;48140;45.486;9.226;2023-02-28T17:36:46;9.50;65.30
62154;DHT22;48140;45.486;9.226;2023-02-28T17:39:13;9.40;65.70
62154;DHT22;48140;45.486;9.226;2023-02-28T17:41:40;9.20;67.90
62154;DHT22;48140;45.486;9.226;2023-02-28T17:44:07;9.10;69.40
62154;DHT22;48140;45.486;9.226;2023-02-28T17:46:33;9.10;69.50
62154;DHT22;48140;45.486;9.226;2023-02-28T17:48:59;9.10;70.00
62154;DHT22;48140;45.486;9.226;2023-02-28T17:51:26;9.10;71.80
62154;DHT22;48140;45.486;9.226;2023-02-28T17:53:52;9.10;70.80
62154;DHT22;48140;45.486;9.226;2023-02-28T17:56:21;9.10;72.50
62154;DHT22;48140;45.486;9.226;2023-02-28T18:09:08;9.10;67.40
62154;DHT22;48140;45.486;9.226;2023-02-28T18:11:33;9.10;68.40